sensor_id;sensor_type;location;lat;lon;timestamp;pressure;altitude;pressure_sealevel;temperature;humidity
60817;BME280;51921;51.518;-3.188;2023-12-20T00:00:28;102029.41;;;3.32;100.00
60817;BME280;51921;51.518;-3.188;2023-12-20T00:02:53;102029.74;;;3.91;100.00
60817;BME280;51921;51.518;-3.188;2023-12-20T00:05:19;102034.85;;;3.91;100.00
60817;BME280;51921;51.518;-3.188;2023-12-20T00:07:44;102029.16;;;4.22;100.00
60817;BME280;51921;51.518;-3.188;2023-12-20T00:10:10;102022.35;;;3.22;100.00
60817;BME280;51921;51.518;-3.188;2023-12-20T00:12:35;102013.13;;;4.68;100.00
60817;BME280;51921;51.518;-3.188;2023-12-20T00:15:01;102009.16;;;4.09;100.00
60817;BME280;51921;51.518;-3.188;2023-12-20T00:17:27;102009.64;;;4.21;100.00
60817;BME280;51921;51.518;-3.188;2023-12-20T00:19:52;102006.91;;;2.98;100.00
60817;BME280;51921;51.518;-3.188;2023-12-20T00:22:18;101998.64;;;3.38;100.00
60817;BME280;51921;51.518;-3.188;2023-12-20T00:24:43;101998.00;;;3.52;100.00
60817;BME280;51921;51.518;-3.188;2023-12-20T00:27:09;101996.92;;;3.98;100.00
60817;BME280;51921;51.518;-3.188;2023-12-20T00:29:34;102002.01;;;2.78;100.00
60817;BME280;51921;51.518;-3.188;2023-12-20T00:32:00;101995.47;;;2.77;100.00
60817;BME280;51921;51.518;-3.188;2023-12-20T00:34:25;101997.69;;;2.88;100.00
60817;BME280;51921;51.518;-3.188;2023-12-20T00:36:51;101999.65;;;3.44;100.00
60817;BME280;51921;51.518;-3.188;2023-12-20T00:39:16;102007.34;;;3.39;100.00
60817;BME280;51921;51.518;-3.188;2023-12-20T00:41:42;102006.02;;;2.93;100.00
60817;BME280;51921;51.518;-3.188;2023-12-20T00:44:07;102007.66;;;3.23;100.00
60817;BME280;51921;51.518;-3.188;2023-12-20T00:46:33;102015.27;;;3.00;100.00
60817;BME280;51921;51.518;-3.188;2023-12-20T00:48:59;102015.89;;;2.95;100.00
60817;BME280;51921;51.518;-3.188;2023-12-20T00:51:24;102015.97;;;3.32;100.00
60817;BME280;51921;51.518;-3.188;2023-12-20T00:53:50;102024.41;;;3.47;100.00
60817;BME280;51921;51.518;-3.188;2023-12-20T00:56:15;102028.60;;;2.92;100.00
60817;BME280;51921;51.518;-3.188;2023-12-20T00:58:40;102034.83;;;3.58;100.00
60817;BME280;51921;51.518;-3.188;2023-12-20T01:01:06;102040.88;;;3.26;100.00
60817;BME280;51921;51.518;-3.188;2023-12-20T01:03:32;102043.84;;;3.11;100.00
60817;BME280;51921;51.518;-3.188;2023-12-20T01:05:57;102047.46;;;3.20;100.00
60817;BME280;51921;51.518;-3.188;2023-12-20T01:08:23;102048.99;;;3.81;100.00
60817;BME280;51921;51.518;-3.188;2023-12-20T01:10:48;102044.90;;;3.80;100.00
60817;BME280;51921;51.518;-3.188;2023-12-20T01:13:14;102031.33;;;3.16;100.00
60817;BME280;51921;51.518;-3.188;2023-12-20T01:15:39;102014.90;;;4.19;100.00
60817;BME280;51921;51.518;-3.188;2023-12-20T01:18:05;102013.54;;;4.14;100.00
60817;BME280;51921;51.518;-3.188;2023-12-20T01:20:30;102003.82;;;3.49;100.00
60817;BME280;51921;51.518;-3.188;2023-12-20T01:22:56;102002.25;;;3.73;100.00
60817;BME280;51921;51.518;-3.188;2023-12-20T01:25:21;102002.83;;;3.95;100.00
60817;BME280;51921;51.518;-3.188;2023-12-20T01:27:47;102007.20;;;3.22;100.00
60817;BME280;51921;51.518;-3.188;2023-12-20T01:30:13;102002.51;;;4.03;100.00
60817;BME280;51921;51.518;-3.188;2023-12-20T01:32:38;102003.25;;;4.63;100.00
60817;BME280;51921;51.518;-3.188;2023-12-20T01:35:04;101999.90;;;3.97;100.00
60817;BME280;51921;51.518;-3.188;2023-12-20T01:37:29;101995.47;;;3.67;100.00
60817;BME280;51921;51.518;-3.188;2023-12-20T01:39:54;101997.26;;;3.89;100.00
60817;BME280;51921;51.518;-3.188;2023-12-20T01:42:20;101993.03;;;3.96;100.00
60817;BME280;51921;51.518;-3.188;2023-12-20T01:44:45;102000.17;;;3.59;100.00
60817;BME280;51921;51.518;-3.188;2023-12-20T01:47:12;102000.48;;;3.64;100.00
60817;BME280;51921;51.518;-3.188;2023-12-20T01:49:37;102001.79;;;3.61;100.00
60817;BME280;51921;51.518;-3.188;2023-12-20T01:52:03;101999.36;;;3.43;100.00
60817;BME280;51921;51.518;-3.188;2023-12-20T01:54:28;101993.34;;;3.39;100.00
60817;BME280;51921;51.518;-3.188;2023-12-20T01:56:53;101990.57;;;3.09;100.00
60817;BME280;51921;51.518;-3.188;2023-12-20T01:59:19;101995.66;;;2.76;100.00
60817;BME280;51921;51.518;-3.188;2023-12-20T02:01:44;101988.89;;;3.10;100.00
60817;BME280;51921;51.518;-3.188;2023-12-20T02:04:09;101989.34;;;3.21;100.00
60817;BME280;51921;51.518;-3.188;2023-12-20T02:06:35;101987.25;;;2.71;100.00
60817;BME280;51921;51.518;-3.188;2023-12-20T02:09:00;101993.27;;;2.49;100.00
60817;BME280;51921;51.518;-3.188;2023-12-20T02:11:26;101998.51;;;3.03;100.00
60817;BME280;51921;51.518;-3.188;2023-12-20T02:13:51;102004.83;;;2.92;100.00
60817;BME280;51921;51.518;-3.188;2023-12-20T02:16:17;102007.13;;;2.89;100.00
60817;BME280;51921;51.518;-3.188;2023-12-20T02:18:43;101998.26;;;2.88;100.00
60817;BME280;51921;51.518;-3.188;2023-12-20T02:21:09;101992.86;;;2.89;100.00
60817;BME280;51921;51.518;-3.188;2023-12-20T02:23:34;101996.05;;;2.80;100.00
60817;BME280;51921;51.518;-3.188;2023-12-20T02:25:59;101990.88;;;2.68;100.00
60817;BME280;51921;51.518;-3.188;2023-12-20T02:28:24;101991.04;;;3.13;100.00
60817;BME280;51921;51.518;-3.188;2023-12-20T02:30:50;101987.83;;;3.04;100.00
60817;BME280;51921;51.518;-3.188;2023-12-20T02:33:16;101983.29;;;2.88;100.00
60817;BME280;51921;51.518;-3.188;2023-12-20T02:35:41;101987.31;;;2.87;100.00
60817;BME280;51921;51.518;-3.188;2023-12-20T02:38:07;101981.03;;;2.41;100.00
60817;BME280;51921;51.518;-3.188;2023-12-20T02:40:32;101983.17;;;3.03;100.00
60817;BME280;51921;51.518;-3.188;2023-12-20T02:42:58;101992.22;;;2.76;100.00
60817;BME280;51921;51.518;-3.188;2023-12-20T02:45:23;101987.87;;;3.15;100.00
60817;BME280;51921;51.518;-3.188;2023-12-20T02:47:49;101985.99;;;3.50;100.00
60817;BME280;51921;51.518;-3.188;2023-12-20T02:50:15;101999.56;;;3.36;100.00
60817;BME280;51921;51.518;-3.188;2023-12-20T02:52:40;102005.96;;;2.90;100.00
60817;BME280;51921;51.518;-3.188;2023-12-20T02:55:06;102008.12;;;3.22;100.00
60817;BME280;51921;51.518;-3.188;2023-12-20T02:57:31;102001.77;;;3.14;100.00
60817;BME280;51921;51.518;-3.188;2023-12-20T02:59:57;102002.28;;;3.47;100.00
60817;BME280;51921;51.518;-3.188;2023-12-20T03:02:23;102005.38;;;3.24;100.00
60817;BME280;51921;51.518;-3.188;2023-12-20T03:04:48;102004.15;;;3.25;100.00
60817;BME280;51921;51.518;-3.188;2023-12-20T03:07:14;101999.05;;;4.13;100.00
60817;BME280;51921;51.518;-3.188;2023-12-20T03:09:39;101996.22;;;3.91;100.00
60817;BME280;51921;51.518;-3.188;2023-12-20T03:12:05;102004.77;;;3.61;100.00
60817;BME280;51921;51.518;-3.188;2023-12-20T03:14:30;101995.43;;;3.58;100.00
60817;BME280;51921;51.518;-3.188;2023-12-20T03:16:56;102002.12;;;3.80;100.00
60817;BME280;51921;51.518;-3.188;2023-12-20T03:19:21;101997.09;;;3.83;100.00
60817;BME280;51921;51.518;-3.188;2023-12-20T03:21:47;101997.97;;;3.33;100.00
60817;BME280;51921;51.518;-3.188;2023-12-20T03:24:12;101992.52;;;3.45;100.00
60817;BME280;51921;51.518;-3.188;2023-12-20T03:26:38;101989.26;;;3.53;100.00
60817;BME280;51921;51.518;-3.188;2023-12-20T03:29:03;101981.29;;;3.97;100.00
60817;BME280;51921;51.518;-3.188;2023-12-20T03:31:29;101972.97;;;3.70;100.00
60817;BME280;51921;51.518;-3.188;2023-12-20T03:33:55;101963.11;;;3.73;100.00
60817;BME280;51921;51.518;-3.188;2023-12-20T03:36:20;101964.00;;;3.64;100.00
60817;BME280;51921;51.518;-3.188;2023-12-20T03:38:46;101954.69;;;3.48;100.00
60817;BME280;51921;51.518;-3.188;2023-12-20T03:41:11;101954.03;;;3.85;100.00
60817;BME280;51921;51.518;-3.188;2023-12-20T03:43:37;101946.71;;;4.10;100.00
60817;BME280;51921;51.518;-3.188;2023-12-20T03:46:03;101944.56;;;3.98;100.00
60817;BME280;51921;51.518;-3.188;2023-12-20T03:48:28;101947.77;;;4.07;100.00
60817;BME280;51921;51.518;-3.188;2023-12-20T03:50:53;101944.59;;;4.10;100.00
60817;BME280;51921;51.518;-3.188;2023-12-20T03:53:19;101944.43;;;3.91;100.00
60817;BME280;51921;51.518;-3.188;2023-12-20T03:55:45;101946.58;;;4.09;100.00
60817;BME280;51921;51.518;-3.188;2023-12-20T03:58:10;101945.04;;;4.35;100.00
60817;BME280;51921;51.518;-3.188;2023-12-20T04:00:36;101945.91;;;4.49;100.00
60817;BME280;51921;51.518;-3.188;2023-12-20T04:03:01;101947.42;;;4.04;100.00
60817;BME280;51921;51.518;-3.188;2023-12-20T04:05:27;101946.31;;;4.29;100.00
60817;BME280;51921;51.518;-3.188;2023-12-20T04:07:52;101940.19;;;3.93;100.00
60817;BME280;51921;51.518;-3.188;2023-12-20T04:10:18;101941.85;;;4.35;100.00
60817;BME280;51921;51.518;-3.188;2023-12-20T04:12:43;101933.83;;;4.29;100.00
60817;BME280;51921;51.518;-3.188;2023-12-20T04:15:09;101938.67;;;4.82;100.00
60817;BME280;51921;51.518;-3.188;2023-12-20T04:17:34;101932.61;;;4.31;100.00
60817;BME280;51921;51.518;-3.188;2023-12-20T04:19:59;101939.74;;;4.64;100.00
60817;BME280;51921;51.518;-3.188;2023-12-20T04:22:25;101938.52;;;4.43;100.00
60817;BME280;51921;51.518;-3.188;2023-12-20T04:24:50;101943.05;;;5.03;100.00
60817;BME280;51921;51.518;-3.188;2023-12-20T04:27:16;101941.96;;;4.43;100.00
60817;BME280;51921;51.518;-3.188;2023-12-20T04:29:41;101938.64;;;4.19;100.00
60817;BME280;51921;51.518;-3.188;2023-12-20T04:32:07;101943.23;;;3.78;100.00
60817;BME280;51921;51.518;-3.188;2023-12-20T04:34:32;101942.39;;;4.78;100.00
60817;BME280;51921;51.518;-3.188;2023-12-20T04:36:58;101929.64;;;4.19;100.00
60817;BME280;51921;51.518;-3.188;2023-12-20T04:39:24;101935.12;;;3.86;100.00
60817;BME280;51921;51.518;-3.188;2023-12-20T04:41:49;101932.02;;;4.62;100.00
60817;BME280;51921;51.518;-3.188;2023-12-20T04:44:15;101928.94;;;4.98;100.00
60817;BME280;51921;51.518;-3.188;2023-12-20T04:46:40;101932.96;;;4.83;100.00
60817;BME280;51921;51.518;-3.188;2023-12-20T04:49:06;101933.04;;;4.66;100.00
60817;BME280;51921;51.518;-3.188;2023-12-20T04:51:33;101932.47;;;4.19;100.00
60817;BME280;51921;51.518;-3.188;2023-12-20T04:53:57;101936.74;;;4.52;100.00
60817;BME280;51921;51.518;-3.188;2023-12-20T04:56:22;101935.21;;;4.53;100.00
60817;BME280;51921;51.518;-3.188;2023-12-20T04:58:48;101927.83;;;4.33;100.00
60817;BME280;51921;51.518;-3.188;2023-12-20T05:01:13;101927.40;;;4.37;100.00
60817;BME280;51921;51.518;-3.188;2023-12-20T05:03:39;101920.42;;;3.63;100.00
60817;BME280;51921;51.518;-3.188;2023-12-20T05:06:04;101918.48;;;4.40;100.00
60817;BME280;51921;51.518;-3.188;2023-12-20T05:08:30;101916.98;;;4.37;100.00
60817;BME280;51921;51.518;-3.188;2023-12-20T05:10:56;101918.00;;;4.43;100.00
60817;BME280;51921;51.518;-3.188;2023-12-20T05:13:21;101917.80;;;4.83;100.00
60817;BME280;51921;51.518;-3.188;2023-12-20T05:15:47;101914.51;;;4.21;100.00
60817;BME280;51921;51.518;-3.188;2023-12-20T05:18:12;101910.93;;;4.47;100.00
60817;BME280;51921;51.518;-3.188;2023-12-20T05:20:38;101912.94;;;4.63;100.00
60817;BME280;51921;51.518;-3.188;2023-12-20T05:23:03;101913.90;;;4.60;100.00
60817;BME280;51921;51.518;-3.188;2023-12-20T05:25:29;101895.79;;;4.31;100.00
60817;BME280;51921;51.518;-3.188;2023-12-20T05:27:54;101891.98;;;4.26;100.00
60817;BME280;51921;51.518;-3.188;2023-12-20T05:30:20;101888.99;;;4.23;100.00
60817;BME280;51921;51.518;-3.188;2023-12-20T05:32:45;101895.44;;;4.67;100.00
60817;BME280;51921;51.518;-3.188;2023-12-20T05:35:11;101889.66;;;4.70;100.00
60817;BME280;51921;51.518;-3.188;2023-12-20T05:37:36;101891.37;;;4.44;100.00
60817;BME280;51921;51.518;-3.188;2023-12-20T05:40:02;101889.33;;;5.07;100.00
60817;BME280;51921;51.518;-3.188;2023-12-20T05:42:27;101889.06;;;4.51;100.00
60817;BME280;51921;51.518;-3.188;2023-12-20T05:44:53;101897.39;;;3.95;100.00
60817;BME280;51921;51.518;-3.188;2023-12-20T05:47:18;101895.57;;;4.17;100.00
60817;BME280;51921;51.518;-3.188;2023-12-20T05:49:44;101890.56;;;4.05;100.00
60817;BME280;51921;51.518;-3.188;2023-12-20T05:52:09;101884.39;;;4.16;100.00
60817;BME280;51921;51.518;-3.188;2023-12-20T05:54:35;101891.33;;;4.14;100.00
60817;BME280;51921;51.518;-3.188;2023-12-20T05:57:00;101890.57;;;4.21;100.00
60817;BME280;51921;51.518;-3.188;2023-12-20T05:59:26;101895.45;;;3.98;100.00
60817;BME280;51921;51.518;-3.188;2023-12-20T06:01:51;101891.70;;;4.47;100.00
60817;BME280;51921;51.518;-3.188;2023-12-20T06:04:17;101891.38;;;4.20;100.00
60817;BME280;51921;51.518;-3.188;2023-12-20T06:06:42;101890.49;;;3.93;100.00
60817;BME280;51921;51.518;-3.188;2023-12-20T06:09:07;101897.50;;;4.39;100.00
60817;BME280;51921;51.518;-3.188;2023-12-20T06:11:33;101907.24;;;4.65;100.00
60817;BME280;51921;51.518;-3.188;2023-12-20T06:13:58;101905.93;;;4.74;100.00
60817;BME280;51921;51.518;-3.188;2023-12-20T06:16:24;101903.10;;;4.60;100.00
60817;BME280;51921;51.518;-3.188;2023-12-20T06:18:50;101901.02;;;4.81;100.00
60817;BME280;51921;51.518;-3.188;2023-12-20T06:21:15;101892.66;;;4.68;100.00
60817;BME280;51921;51.518;-3.188;2023-12-20T06:23:41;101885.61;;;5.17;100.00
60817;BME280;51921;51.518;-3.188;2023-12-20T06:26:06;101878.38;;;5.19;100.00
60817;BME280;51921;51.518;-3.188;2023-12-20T06:28:32;101878.99;;;4.97;100.00
60817;BME280;51921;51.518;-3.188;2023-12-20T06:30:57;101880.75;;;5.29;100.00
60817;BME280;51921;51.518;-3.188;2023-12-20T06:33:22;101893.16;;;4.94;100.00
60817;BME280;51921;51.518;-3.188;2023-12-20T06:35:47;101885.20;;;5.10;100.00
60817;BME280;51921;51.518;-3.188;2023-12-20T06:38:13;101902.34;;;4.89;100.00
60817;BME280;51921;51.518;-3.188;2023-12-20T06:40:38;101904.55;;;5.42;100.00
60817;BME280;51921;51.518;-3.188;2023-12-20T06:43:04;101909.36;;;4.74;100.00
60817;BME280;51921;51.518;-3.188;2023-12-20T06:45:29;101899.18;;;4.76;100.00
60817;BME280;51921;51.518;-3.188;2023-12-20T06:47:55;101888.86;;;4.58;100.00
60817;BME280;51921;51.518;-3.188;2023-12-20T06:50:20;101887.78;;;5.07;100.00
60817;BME280;51921;51.518;-3.188;2023-12-20T06:52:46;101874.98;;;5.00;100.00
60817;BME280;51921;51.518;-3.188;2023-12-20T06:55:11;101869.61;;;4.50;100.00
60817;BME280;51921;51.518;-3.188;2023-12-20T06:57:37;101867.04;;;5.04;100.00
60817;BME280;51921;51.518;-3.188;2023-12-20T07:00:03;101868.69;;;5.20;100.00
60817;BME280;51921;51.518;-3.188;2023-12-20T07:02:27;101874.07;;;4.73;100.00
60817;BME280;51921;51.518;-3.188;2023-12-20T07:04:54;101876.75;;;5.27;100.00
60817;BME280;51921;51.518;-3.188;2023-12-20T07:07:18;101881.51;;;5.01;100.00
60817;BME280;51921;51.518;-3.188;2023-12-20T07:09:44;101875.56;;;5.26;100.00
60817;BME280;51921;51.518;-3.188;2023-12-20T07:12:09;101874.14;;;4.95;100.00
60817;BME280;51921;51.518;-3.188;2023-12-20T07:14:35;101870.53;;;5.34;100.00
60817;BME280;51921;51.518;-3.188;2023-12-20T07:17:00;101877.34;;;5.34;100.00
60817;BME280;51921;51.518;-3.188;2023-12-20T07:19:25;101881.48;;;4.44;100.00
60817;BME280;51921;51.518;-3.188;2023-12-20T07:21:51;101880.81;;;4.80;100.00
60817;BME280;51921;51.518;-3.188;2023-12-20T07:24:16;101875.18;;;5.13;100.00
60817;BME280;51921;51.518;-3.188;2023-12-20T07:26:42;101882.36;;;4.46;100.00
60817;BME280;51921;51.518;-3.188;2023-12-20T07:29:07;101883.46;;;5.36;100.00
60817;BME280;51921;51.518;-3.188;2023-12-20T07:31:33;101882.00;;;5.28;100.00
60817;BME280;51921;51.518;-3.188;2023-12-20T07:33:58;101878.04;;;5.10;100.00
60817;BME280;51921;51.518;-3.188;2023-12-20T07:36:24;101858.32;;;5.06;100.00
60817;BME280;51921;51.518;-3.188;2023-12-20T07:38:49;101870.00;;;5.08;100.00
60817;BME280;51921;51.518;-3.188;2023-12-20T07:41:15;101867.93;;;5.10;100.00
60817;BME280;51921;51.518;-3.188;2023-12-20T07:43:40;101870.63;;;5.29;100.00
60817;BME280;51921;51.518;-3.188;2023-12-20T07:46:06;101877.22;;;5.20;100.00
60817;BME280;51921;51.518;-3.188;2023-12-20T07:48:31;101872.36;;;5.26;100.00
60817;BME280;51921;51.518;-3.188;2023-12-20T07:50:57;101868.24;;;5.20;100.00
60817;BME280;51921;51.518;-3.188;2023-12-20T07:53:22;101865.29;;;5.22;100.00
60817;BME280;51921;51.518;-3.188;2023-12-20T07:55:48;101870.96;;;4.63;100.00
60817;BME280;51921;51.518;-3.188;2023-12-20T07:58:13;101872.68;;;4.74;100.00
60817;BME280;51921;51.518;-3.188;2023-12-20T08:00:39;101872.66;;;4.67;100.00
60817;BME280;51921;51.518;-3.188;2023-12-20T08:03:05;101872.74;;;4.79;100.00
60817;BME280;51921;51.518;-3.188;2023-12-20T08:05:30;101876.76;;;4.66;100.00
60817;BME280;51921;51.518;-3.188;2023-12-20T08:07:56;101874.78;;;4.72;100.00
60817;BME280;51921;51.518;-3.188;2023-12-20T08:10:21;101876.21;;;4.50;100.00
60817;BME280;51921;51.518;-3.188;2023-12-20T08:12:47;101876.51;;;4.55;100.00
60817;BME280;51921;51.518;-3.188;2023-12-20T08:15:13;101882.44;;;4.21;100.00
60817;BME280;51921;51.518;-3.188;2023-12-20T08:17:38;101881.20;;;4.48;100.00
60817;BME280;51921;51.518;-3.188;2023-12-20T08:20:04;101889.97;;;4.26;100.00
60817;BME280;51921;51.518;-3.188;2023-12-20T08:22:28;101892.60;;;4.41;100.00
60817;BME280;51921;51.518;-3.188;2023-12-20T08:24:54;101897.05;;;4.53;100.00
60817;BME280;51921;51.518;-3.188;2023-12-20T08:27:20;101891.75;;;4.15;100.00
60817;BME280;51921;51.518;-3.188;2023-12-20T08:29:45;101893.76;;;4.52;100.00
60817;BME280;51921;51.518;-3.188;2023-12-20T08:32:11;101897.62;;;4.55;100.00
60817;BME280;51921;51.518;-3.188;2023-12-20T08:34:36;101904.20;;;4.50;100.00
60817;BME280;51921;51.518;-3.188;2023-12-20T08:37:02;101897.13;;;5.14;100.00
60817;BME280;51921;51.518;-3.188;2023-12-20T08:39:27;101893.99;;;5.38;100.00
60817;BME280;51921;51.518;-3.188;2023-12-20T08:41:53;101893.99;;;5.30;100.00
60817;BME280;51921;51.518;-3.188;2023-12-20T08:44:18;101902.84;;;4.62;100.00
60817;BME280;51921;51.518;-3.188;2023-12-20T08:46:44;101915.36;;;4.79;100.00
60817;BME280;51921;51.518;-3.188;2023-12-20T08:49:09;101922.24;;;4.71;100.00
60817;BME280;51921;51.518;-3.188;2023-12-20T08:51:34;101908.01;;;4.59;100.00
60817;BME280;51921;51.518;-3.188;2023-12-20T08:54:00;101898.72;;;4.38;100.00
60817;BME280;51921;51.518;-3.188;2023-12-20T08:56:25;101906.67;;;4.67;100.00
60817;BME280;51921;51.518;-3.188;2023-12-20T08:58:51;101899.04;;;5.00;100.00
60817;BME280;51921;51.518;-3.188;2023-12-20T09:01:17;101896.52;;;5.09;100.00
60817;BME280;51921;51.518;-3.188;2023-12-20T09:03:42;101891.36;;;5.65;100.00
60817;BME280;51921;51.518;-3.188;2023-12-20T09:06:08;101903.26;;;5.32;100.00
60817;BME280;51921;51.518;-3.188;2023-12-20T09:08:33;101901.11;;;5.07;100.00
60817;BME280;51921;51.518;-3.188;2023-12-20T09:10:59;101911.93;;;5.31;100.00
60817;BME280;51921;51.518;-3.188;2023-12-20T09:13:25;101898.58;;;5.47;100.00
60817;BME280;51921;51.518;-3.188;2023-12-20T09:15:50;101896.07;;;4.92;100.00
60817;BME280;51921;51.518;-3.188;2023-12-20T09:18:15;101894.08;;;5.16;100.00
60817;BME280;51921;51.518;-3.188;2023-12-20T09:20:41;101897.49;;;5.10;100.00
60817;BME280;51921;51.518;-3.188;2023-12-20T09:23:06;101894.04;;;4.69;100.00
60817;BME280;51921;51.518;-3.188;2023-12-20T09:25:32;101883.91;;;5.33;100.00
60817;BME280;51921;51.518;-3.188;2023-12-20T09:27:57;101884.56;;;5.59;100.00
60817;BME280;51921;51.518;-3.188;2023-12-20T09:30:23;101874.43;;;5.27;100.00
60817;BME280;51921;51.518;-3.188;2023-12-20T09:32:48;101868.95;;;5.58;100.00
60817;BME280;51921;51.518;-3.188;2023-12-20T09:35:14;101859.38;;;5.41;100.00
60817;BME280;51921;51.518;-3.188;2023-12-20T09:37:39;101851.50;;;5.27;100.00
60817;BME280;51921;51.518;-3.188;2023-12-20T09:40:06;101845.57;;;5.27;100.00
60817;BME280;51921;51.518;-3.188;2023-12-20T09:42:38;101839.00;;;5.31;100.00
60817;BME280;51921;51.518;-3.188;2023-12-20T09:44:58;101850.96;;;5.32;100.00
60817;BME280;51921;51.518;-3.188;2023-12-20T09:47:23;101864.16;;;4.88;100.00
60817;BME280;51921;51.518;-3.188;2023-12-20T09:49:47;101871.51;;;5.22;100.00
60817;BME280;51921;51.518;-3.188;2023-12-20T09:52:13;101871.34;;;5.61;100.00
60817;BME280;51921;51.518;-3.188;2023-12-20T09:54:38;101881.00;;;5.78;100.00
60817;BME280;51921;51.518;-3.188;2023-12-20T09:57:04;101873.09;;;5.67;100.00
60817;BME280;51921;51.518;-3.188;2023-12-20T09:59:28;101872.36;;;5.88;100.00
60817;BME280;51921;51.518;-3.188;2023-12-20T10:01:55;101869.19;;;6.35;100.00
60817;BME280;51921;51.518;-3.188;2023-12-20T10:04:19;101859.93;;;5.42;100.00
60817;BME280;51921;51.518;-3.188;2023-12-20T10:06:45;101857.21;;;5.57;100.00
60817;BME280;51921;51.518;-3.188;2023-12-20T10:09:11;101868.95;;;6.39;100.00
60817;BME280;51921;51.518;-3.188;2023-12-20T10:11:37;101880.29;;;6.31;100.00
60817;BME280;51921;51.518;-3.188;2023-12-20T10:14:02;101873.78;;;5.64;100.00
60817;BME280;51921;51.518;-3.188;2023-12-20T10:16:28;101857.77;;;5.90;100.00
60817;BME280;51921;51.518;-3.188;2023-12-20T10:18:53;101865.71;;;5.90;100.00
60817;BME280;51921;51.518;-3.188;2023-12-20T10:21:18;101864.54;;;5.53;100.00
60817;BME280;51921;51.518;-3.188;2023-12-20T10:23:44;101875.45;;;5.48;100.00
60817;BME280;51921;51.518;-3.188;2023-12-20T10:26:09;101871.27;;;5.70;100.00
60817;BME280;51921;51.518;-3.188;2023-12-20T10:28:35;101869.39;;;5.49;100.00
60817;BME280;51921;51.518;-3.188;2023-12-20T10:31:00;101865.85;;;5.60;100.00
60817;BME280;51921;51.518;-3.188;2023-12-20T10:33:27;101850.38;;;5.86;100.00
60817;BME280;51921;51.518;-3.188;2023-12-20T10:35:52;101833.46;;;5.53;100.00
60817;BME280;51921;51.518;-3.188;2023-12-20T10:38:17;101821.46;;;5.69;100.00
60817;BME280;51921;51.518;-3.188;2023-12-20T10:40:42;101812.99;;;5.74;100.00
60817;BME280;51921;51.518;-3.188;2023-12-20T10:43:09;101819.74;;;5.63;100.00
60817;BME280;51921;51.518;-3.188;2023-12-20T10:45:34;101814.91;;;5.71;100.00
60817;BME280;51921;51.518;-3.188;2023-12-20T10:47:59;101822.31;;;5.80;100.00
60817;BME280;51921;51.518;-3.188;2023-12-20T10:50:25;101802.25;;;5.42;100.00
60817;BME280;51921;51.518;-3.188;2023-12-20T10:52:51;101796.64;;;5.71;100.00
60817;BME280;51921;51.518;-3.188;2023-12-20T10:55:15;101795.38;;;5.70;100.00
60817;BME280;51921;51.518;-3.188;2023-12-20T10:57:42;101796.89;;;5.46;100.00
60817;BME280;51921;51.518;-3.188;2023-12-20T11:00:09;101774.18;;;5.61;100.00
60817;BME280;51921;51.518;-3.188;2023-12-20T11:02:33;101774.78;;;5.27;100.00
60817;BME280;51921;51.518;-3.188;2023-12-20T11:05:05;101776.19;;;5.69;100.00
60817;BME280;51921;51.518;-3.188;2023-12-20T11:07:28;101772.36;;;5.61;100.00
60817;BME280;51921;51.518;-3.188;2023-12-20T11:09:56;101778.68;;;4.92;100.00
60817;BME280;51921;51.518;-3.188;2023-12-20T11:12:17;101764.40;;;5.31;100.00
60817;BME280;51921;51.518;-3.188;2023-12-20T11:14:42;101777.87;;;5.75;100.00
60817;BME280;51921;51.518;-3.188;2023-12-20T11:17:07;101771.16;;;4.97;100.00
60817;BME280;51921;51.518;-3.188;2023-12-20T11:19:30;101742.76;;;5.36;100.00
60817;BME280;51921;51.518;-3.188;2023-12-20T11:21:57;101746.37;;;5.49;100.00
60817;BME280;51921;51.518;-3.188;2023-12-20T11:24:22;101745.52;;;5.45;100.00
60817;BME280;51921;51.518;-3.188;2023-12-20T11:26:47;101746.47;;;5.41;100.00
60817;BME280;51921;51.518;-3.188;2023-12-20T11:31:40;101729.49;;;5.60;100.00
60817;BME280;51921;51.518;-3.188;2023-12-20T11:34:12;101731.39;;;5.78;100.00
60817;BME280;51921;51.518;-3.188;2023-12-20T11:36:32;101725.04;;;5.67;100.00
60817;BME280;51921;51.518;-3.188;2023-12-20T11:38:56;101713.11;;;5.52;100.00
60817;BME280;51921;51.518;-3.188;2023-12-20T11:41:22;101721.90;;;5.72;100.00
60817;BME280;51921;51.518;-3.188;2023-12-20T11:43:46;101719.14;;;6.11;100.00
60817;BME280;51921;51.518;-3.188;2023-12-20T11:46:11;101720.54;;;5.68;100.00
60817;BME280;51921;51.518;-3.188;2023-12-20T11:48:38;101704.72;;;6.14;100.00
60817;BME280;51921;51.518;-3.188;2023-12-20T11:51:08;101699.75;;;6.01;100.00
60817;BME280;51921;51.518;-3.188;2023-12-20T11:53:28;101700.05;;;6.29;100.00
60817;BME280;51921;51.518;-3.188;2023-12-20T11:55:54;101695.92;;;5.76;100.00
60817;BME280;51921;51.518;-3.188;2023-12-20T11:58:19;101680.62;;;5.75;100.00
60817;BME280;51921;51.518;-3.188;2023-12-20T12:00:44;101669.64;;;5.66;100.00
60817;BME280;51921;51.518;-3.188;2023-12-20T12:03:10;101667.90;;;6.20;100.00
60817;BME280;51921;51.518;-3.188;2023-12-20T12:05:35;101660.58;;;5.67;100.00
60817;BME280;51921;51.518;-3.188;2023-12-20T12:08:01;101653.09;;;6.59;100.00
60817;BME280;51921;51.518;-3.188;2023-12-20T12:10:26;101642.40;;;6.10;100.00
60817;BME280;51921;51.518;-3.188;2023-12-20T12:12:52;101638.25;;;6.16;100.00
60817;BME280;51921;51.518;-3.188;2023-12-20T12:15:17;101634.11;;;6.46;100.00
60817;BME280;51921;51.518;-3.188;2023-12-20T12:17:43;101632.67;;;6.05;100.00
60817;BME280;51921;51.518;-3.188;2023-12-20T12:20:09;101628.63;;;5.92;100.00
60817;BME280;51921;51.518;-3.188;2023-12-20T12:22:34;101626.11;;;6.18;100.00
60817;BME280;51921;51.518;-3.188;2023-12-20T12:25:09;101632.36;;;6.03;100.00
60817;BME280;51921;51.518;-3.188;2023-12-20T12:27:25;101623.16;;;5.77;100.00
60817;BME280;51921;51.518;-3.188;2023-12-20T12:30:00;101641.62;;;5.68;100.00
60817;BME280;51921;51.518;-3.188;2023-12-20T12:32:16;101635.45;;;6.08;100.00